Terminal Aerodrome Forecast
Issued by NWS

Home | Current Version | Previous Version | Text Only | Print | Product List | Glossary On
Versions: 1 2 3 4 5 6 7 8 9 10 11 12 13 14 15
000
FTUS46 KSEW 241100
TAFBFI
TAF
KBFI 241122Z 2412/2512 17011KT P6SM -RA SCT025 OVC035
     FM241500 18012G20KT P6SM -SHRA OVC030
     FM242200 19012KT P6SM VCSH SCT030 BKN050
     FM250500 16006KT P6SM BKN040 BKN060=

USA.gov is the U.S. government's official web portal to all federal, state and local government web resources and services.